Time;durP1;ratioP1;P1;durP2;ratioP2;P2;SDS_P1;SDS_P2;PMS_P1;PMS_P2;Temp;Humidity;BMP_temperature;BMP_pressure;BME280_temperature;BME280_humidity;BME280_pressure;Samples;Min_cycle;Max_cycle;Signal;HPM_P1;HPM_P2
2023/12/17 00:01:02;;;;;;;25.40;17.73;;;;;;;-0.92;82.97;102775.41;2507992;28;20057;-79
2023/12/17 00:02:17;;;;;;;23.85;16.63;;;;;;;-0.95;83.32;102773.53;2513476;28;20778;-80
2023/12/17 00:03:30;;;;;;;17.70;14.20;;;;;;;-0.94;83.20;102769.28;2508512;28;20046;-80
2023/12/17 00:04:45;;;;;;;21.35;14.60;;;;;;;-0.93;82.99;102777.09;2510372;28;20337;-79
2023/12/17 00:05:58;;;;;;;22.27;15.50;;;;;;;-0.92;83.48;102763.50;2512656;28;20053;-79
2023/12/17 00:07:12;;;;;;;27.55;15.48;;;;;;;-0.91;83.20;102769.50;2505482;28;20302;-79
2023/12/17 00:08:26;;;;;;;24.08;16.88;;;;;;;-0.89;83.36;102776.53;2496054;28;20532;-80
2023/12/17 00:09:41;;;;;;;20.48;14.75;;;;;;;-0.90;83.34;102779.00;2500131;28;20365;-80
2023/12/17 00:10:55;;;;;;;22.38;17.40;;;;;;;-0.91;83.40;102770.38;2498901;28;20428;-79
2023/12/17 00:12:09;;;;;;;25.15;16.73;;;;;;;-0.89;83.47;102770.50;2511599;28;20282;-79
2023/12/17 00:13:24;;;;;;;22.58;14.98;;;;;;;-0.90;83.08;102772.19;2507724;28;20069;-79
2023/12/17 00:14:39;;;;;;;18.33;14.90;;;;;;;-0.94;83.10;102767.59;2511391;28;20308;-79
2023/12/17 00:15:52;;;;;;;20.00;15.60;;;;;;;-0.96;82.97;102764.03;2504884;28;20294;-80
2023/12/17 00:17:07;;;;;;;22.75;14.75;;;;;;;-0.97;83.55;102764.84;2514206;28;20305;-80
2023/12/17 00:18:20;;;;;;;23.05;15.10;;;;;;;-0.98;83.34;102764.72;2508368;28;20058;-80
2023/12/17 00:19:34;;;;;;;22.80;16.15;;;;;;;-0.97;83.09;102762.28;2514269;28;20278;-78
2023/12/17 00:20:48;;;;;;;24.05;16.33;;;;;;;-0.95;83.23;102765.84;2512676;28;20047;-78
2023/12/17 00:22:02;;;;;;;24.73;16.88;;;;;;;-0.94;83.10;102767.59;2513073;28;20380;-78
2023/12/17 00:23:16;;;;;;;22.77;16.25;;;;;;;-0.94;83.68;102765.03;2504209;28;20131;-79
2023/12/17 00:24:30;;;;;;;24.48;15.40;;;;;;;-0.94;83.30;102770.16;2504681;28;20381;-79
2023/12/17 00:25:45;;;;;;;21.63;14.85;;;;;;;-0.92;83.59;102772.84;2509643;28;20420;-79
2023/12/17 00:26:59;;;;;;;19.23;13.10;;;;;;;-0.92;83.41;102773.75;2508047;28;20834;-79
2023/12/17 00:28:13;;;;;;;18.40;13.02;;;;;;;-0.91;83.14;102770.38;2505050;28;20046;-79
2023/12/17 00:29:27;;;;;;;23.80;16.25;;;;;;;-0.93;83.24;102771.97;2512230;28;20317;-80
2023/12/17 00:30:40;;;;;;;25.60;16.23;;;;;;;-0.94;83.17;102771.84;2509323;28;20507;-80
2023/12/17 00:31:55;;;;;;;23.27;15.15;;;;;;;-0.95;83.26;102781.22;2507394;28;20286;-79
2023/12/17 00:33:08;;;;;;;29.58;15.45;;;;;;;-0.94;83.01;102775.28;2513005;28;20057;-79
2023/12/17 00:34:23;;;;;;;24.08;16.55;;;;;;;-0.93;83.49;102778.75;2498363;28;20685;-79
2023/12/17 00:35:36;;;;;;;25.15;15.07;;;;;;;-0.93;83.37;102776.19;2510213;28;20047;-79
2023/12/17 00:36:50;;;;;;;19.55;14.60;;;;;;;-0.93;83.41;102776.19;2511420;28;20309;-79
2023/12/17 00:38:04;;;;;;;22.73;15.30;;;;;;;-0.93;83.56;102782.22;2509143;28;20051;-78
2023/12/17 00:39:18;;;;;;;25.05;16.02;;;;;;;-0.94;83.18;102789.78;2505694;28;20854;-78
2023/12/17 00:40:32;;;;;;;27.17;15.55;;;;;;;-0.97;83.04;102785.34;2506275;28;20047;-79
2023/12/17 00:41:47;;;;;;;21.48;14.57;;;;;;;-0.95;83.35;102791.47;2512356;28;20801;-80
2023/12/17 00:43:01;;;;;;;20.65;14.00;;;;;;;-0.95;83.20;102783.78;2510331;28;20484;-79
2023/12/17 00:44:15;;;;;;;21.08;14.52;;;;;;;-0.96;83.38;102791.34;2507321;28;20375;-80
2023/12/17 00:45:29;;;;;;;20.83;13.85;;;;;;;-0.98;83.08;102780.09;2507404;28;20051;-79
2023/12/17 00:46:43;;;;;;;18.77;13.43;;;;;;;-0.99;83.27;102781.75;2507041;28;20316;-79
2023/12/17 00:47:57;;;;;;;22.10;12.90;;;;;;;-0.98;83.38;102782.66;2506917;28;20373;-79
2023/12/17 00:49:11;;;;;;;17.90;14.00;;;;;;;-0.98;83.29;102775.88;2515421;28;20309;-78
2023/12/17 00:50:24;;;;;;;16.35;13.07;;;;;;;-0.99;83.14;102774.06;2507675;28;20050;-79
2023/12/17 00:51:39;;;;;;;22.95;11.73;;;;;;;-1.00;83.16;102774.88;2506852;28;20292;-79
2023/12/17 00:52:52;;;;;;;21.20;11.45;;;;;;;-1.01;83.54;102783.31;2507402;28;20047;-78
2023/12/17 00:54:07;;;;;;;18.30;13.85;;;;;;;-1.00;83.21;102771.41;2514869;28;20794;-78
2023/12/17 00:55:21;;;;;;;18.35;12.50;;;;;;;-1.02;83.23;102766.16;2507525;28;20066;-79
2023/12/17 00:56:35;;;;;;;20.48;14.18;;;;;;;-1.02;83.07;102778.97;2510763;28;21078;-78
2023/12/17 00:57:50;;;;;;;19.85;13.43;;;;;;;-1.04;83.18;102767.72;2511984;28;20302;-79
2023/12/17 00:59:04;;;;;;;20.60;14.52;;;;;;;-1.06;83.22;102766.72;2506702;28;20885;-79
2023/12/17 01:00:18;;;;;;;16.40;11.45;;;;;;;-1.06;83.43;102769.28;2497108;28;20283;-79
2023/12/17 01:01:32;;;;;;;17.90;13.95;;;;;;;-1.05;83.22;102765.94;2499926;28;20699;-79
2023/12/17 01:02:46;;;;;;;23.08;13.98;;;;;;;-1.05;83.35;102765.94;2501983;28;20677;-79
2023/12/17 01:04:00;;;;;;;19.33;13.35;;;;;;;-1.05;83.62;102765.06;2504153;28;20291;-79
2023/12/17 01:05:14;;;;;;;15.15;12.13;;;;;;;-1.05;83.11;102765.06;2506904;28;20073;-78
2023/12/17 01:06:28;;;;;;;21.15;12.90;;;;;;;-1.04;83.16;102767.72;2507585;28;20310;-79
2023/12/17 01:07:41;;;;;;;18.98;12.90;;;;;;;-1.03;83.19;102774.66;2511212;28;20055;-79
2023/12/17 01:08:56;;;;;;;16.50;13.52;;;;;;;-1.03;83.34;102772.09;2510917;28;20661;-79
2023/12/17 01:10:09;;;;;;;23.33;12.57;;;;;;;-1.02;83.44;102771.28;2506411;28;20047;-79
2023/12/17 01:11:24;;;;;;;20.35;14.85;;;;;;;-1.01;83.49;102769.63;2513559;28;20312;-77
2023/12/17 01:12:37;;;;;;;19.23;13.27;;;;;;;-1.01;83.10;102773.06;2505632;28;20492;-77
2023/12/17 01:13:53;;;;;;;22.77;14.80;;;;;;;-1.04;83.55;102767.72;2505598;28;20314;-77
2023/12/17 01:15:07;;;;;;;18.65;14.13;;;;;;;-1.05;83.40;102771.09;2505292;28;20042;-77
2023/12/17 01:16:21;;;;;;;20.42;11.93;;;;;;;-1.08;83.46;102760.63;2497037;28;20314;-78
2023/12/17 01:17:35;;;;;;;19.58;13.38;;;;;;;-1.11;83.00;102762.94;2504101;28;20330;-78
2023/12/17 01:18:49;;;;;;;18.20;12.93;;;;;;;-1.13;82.91;102761.94;2500276;28;20761;-79
2023/12/17 01:20:03;;;;;;;19.33;12.40;;;;;;;-1.16;83.23;102754.00;2503459;28;20047;-77
2023/12/17 01:21:17;;;;;;;18.92;14.40;;;;;;;-1.17;83.26;102754.81;2506400;28;20811;-78
2023/12/17 01:22:31;;;;;;;23.63;12.32;;;;;;;-1.18;83.27;102753.03;2506854;28;20302;-79
2023/12/17 01:23:46;;;;;;;22.17;13.30;;;;;;;-1.19;83.40;102748.69;2505698;28;20763;-78
2023/12/17 01:24:59;;;;;;;21.60;12.85;;;;;;;-1.18;83.38;102763.28;2500154;28;20046;-78
2023/12/17 01:26:18;;;;;;;16.52;11.43;;;;;;;-1.19;83.49;102754.72;2496861;28;20324;-78
2023/12/17 01:27:31;;;;;;;22.08;14.13;;;;;;;-1.17;83.21;102767.63;2499331;28;20042;-78
2023/12/17 01:28:46;;;;;;;14.85;12.02;;;;;;;-1.16;83.38;102754.00;2511621;28;20305;-79
2023/12/17 01:30:00;;;;;;;17.83;13.07;;;;;;;-1.16;83.59;102756.56;2510186;28;20058;-79
2023/12/17 01:31:15;;;;;;;23.45;12.52;;;;;;;-1.16;83.49;102762.63;2514312;28;20387;-80
2023/12/17 01:32:28;;;;;;;18.30;11.60;;;;;;;-1.15;83.30;102759.25;2509045;28;20294;-79
2023/12/17 01:33:43;;;;;;;23.92;13.20;;;;;;;-1.18;83.64;102761.59;2512221;28;20799;-79
2023/12/17 01:34:56;;;;;;;18.45;14.57;;;;;;;-1.17;83.43;102765.06;2506431;28;20051;-79
2023/12/17 01:36:11;;;;;;;22.02;13.43;;;;;;;-1.19;83.13;102769.16;2506171;28;20879;-79
2023/12/17 01:37:25;;;;;;;15.63;10.68;;;;;;;-1.18;83.15;102770.97;2514309;28;20061;-79
2023/12/17 01:38:39;;;;;;;14.20;12.18;;;;;;;-1.23;83.49;102772.31;2505560;28;20310;-79
2023/12/17 01:39:52;;;;;;;16.42;13.00;;;;;;;-1.25;83.39;102766.16;2501686;28;20047;-77
2023/12/17 01:41:07;;;;;;;17.90;10.52;;;;;;;-1.28;83.32;102766.84;2514155;28;20317;-79
2023/12/17 01:42:21;;;;;;;15.40;12.30;;;;;;;-1.30;83.52;102762.38;2508242;28;20055;-78
2023/12/17 01:43:35;;;;;;;17.73;11.85;;;;;;;-1.33;83.64;102753.69;2513488;28;20664;-79
2023/12/17 01:44:49;;;;;;;15.30;10.75;;;;;;;-1.34;83.20;102759.59;2511651;28;20046;-79
2023/12/17 01:46:05;;;;;;;20.20;12.38;;;;;;;-1.34;83.43;102758.72;2509948;28;20318;-79
2023/12/17 01:47:18;;;;;;;17.02;12.10;;;;;;;-1.33;83.28;102761.38;2514180;28;20042;-79
2023/12/17 01:48:33;;;;;;;17.05;11.18;;;;;;;-1.32;83.71;102770.84;2506053;28;20727;-78
2023/12/17 01:49:46;;;;;;;17.38;12.07;;;;;;;-1.32;83.49;102758.06;2506788;28;20050;-79
2023/12/17 01:51:01;;;;;;;15.48;10.88;;;;;;;-1.32;83.30;102765.72;2512670;28;20305;-78
2023/12/17 01:52:15;;;;;;;18.48;13.05;;;;;;;-1.32;83.48;102759.69;2507938;28;20039;-79
2023/12/17 01:53:30;;;;;;;18.85;12.25;;;;;;;-1.33;83.28;102774.19;2515067;28;20369;-79
2023/12/17 01:54:43;;;;;;;16.65;12.05;;;;;;;-1.31;83.36;102766.63;2511414;28;20621;-80
2023/12/17 01:55:58;;;;;;;21.27;13.23;;;;;;;-1.30;83.14;102767.50;2511016;28;20292;-80
2023/12/17 01:57:11;;;;;;;15.63;12.40;;;;;;;-1.33;83.24;102765.59;2514844;28;20074;-79
2023/12/17 01:58:26;;;;;;;16.23;12.00;;;;;;;-1.32;83.28;102762.25;2508479;28;20321;-79
2023/12/17 01:59:40;;;;;;;19.35;11.65;;;;;;;-1.33;83.34;102766.50;2506654;28;20054;-79
2023/12/17 02:00:55;;;;;;;17.65;12.40;;;;;;;-1.35;83.23;102769.72;2501642;28;20855;-78
2023/12/17 02:02:10;;;;;;;21.75;12.40;;;;;;;-1.38;83.64;102769.50;2503491;28;20301;-79
2023/12/17 02:03:25;;;;;;;17.63;12.43;;;;;;;-1.41;83.61;102764.16;2497177;28;20320;-77
2023/12/17 02:04:38;;;;;;;13.95;10.65;;;;;;;-1.40;83.28;102771.06;2508274;28;20301;-79
2023/12/17 02:05:53;;;;;;;20.13;13.60;;;;;;;-1.39;83.22;102773.75;2510262;28;20317;-78
2023/12/17 02:07:06;;;;;;;19.70;11.15;;;;;;;-1.37;83.39;102779.88;2511789;28;20047;-79
2023/12/17 02:08:21;;;;;;;16.52;11.07;;;;;;;-1.40;83.29;102781.28;2505940;28;20287;-78
2023/12/17 02:09:35;;;;;;;22.30;12.05;;;;;;;-1.44;83.66;102790.44;2512249;28;20054;-79
2023/12/17 02:10:49;;;;;;;23.75;13.88;;;;;;;-1.47;83.70;102784.16;2509655;28;20377;-79
2023/12/17 02:12:03;;;;;;;13.77;10.13;;;;;;;-1.52;83.60;102780.38;2507203;28;20042;-78
2023/12/17 02:13:17;;;;;;;18.10;11.65;;;;;;;-1.54;83.30;102770.94;2504645;28;20316;-78
2023/12/17 02:14:31;;;;;;;21.75;11.35;;;;;;;-1.52;83.82;102773.63;2504241;28;20516;-78
2023/12/17 02:15:45;;;;;;;13.35;10.48;;;;;;;-1.49;83.55;102783.19;2507946;28;20313;-78
2023/12/17 02:16:59;;;;;;;19.00;13.95;;;;;;;-1.46;83.42;102780.84;2507878;28;20050;-79
2023/12/17 02:18:15;;;;;;;14.45;10.50;;;;;;;-1.44;83.42;102779.31;2503943;28;20336;-79
2023/12/17 02:19:28;;;;;;;14.80;10.93;;;;;;;-1.43;83.65;102778.50;2505530;28;21469;-78
2023/12/17 02:20:43;;;;;;;17.83;12.30;;;;;;;-1.43;83.72;102774.28;2510248;28;20309;-78
2023/12/17 02:21:57;;;;;;;15.93;11.73;;;;;;;-1.41;83.75;102782.09;2504005;28;20054;-79
2023/12/17 02:25:22;;;;;;;18.73;13.70;;;;;;;-1.43;83.29;102779.41;2501579;28;20171;-78
2023/12/17 02:26:35;;;;;;;20.88;13.18;;;;;;;-1.42;83.43;102794.00;2503792;28;20316;-78
2023/12/17 02:27:50;;;;;;;32.60;15.10;;;;;;;-1.42;83.39;102787.97;2503542;28;20667;-78
2023/12/17 02:29:03;;;;;;;16.70;13.10;;;;;;;-1.43;83.32;102794.75;2504059;28;20394;-79
2023/12/17 02:30:18;;;;;;;19.67;13.68;;;;;;;-1.43;83.62;102792.19;2503712;28;20321;-78
2023/12/17 02:31:31;;;;;;;18.35;13.55;;;;;;;-1.43;83.15;102788.75;2503360;28;20043;-78
2023/12/17 02:32:45;;;;;;;15.50;12.07;;;;;;;-1.45;83.52;102788.63;2514605;28;20312;-78
2023/12/17 02:33:59;;;;;;;16.35;12.40;;;;;;;-1.45;83.08;102788.63;2515517;28;20022;-78
2023/12/17 02:35:13;;;;;;;19.50;12.48;;;;;;;-1.46;83.45;102778.28;2510158;28;20396;-78
2023/12/17 02:36:27;;;;;;;19.33;12.32;;;;;;;-1.47;83.53;102776.50;2507615;28;20059;-79
2023/12/17 02:37:41;;;;;;;18.70;11.60;;;;;;;-1.48;83.31;102778.16;2506649;28;20374;-78
2023/12/17 02:38:55;;;;;;;16.65;11.05;;;;;;;-1.48;83.46;102779.84;2506913;28;20057;-78
2023/12/17 02:40:10;;;;;;;20.35;12.60;;;;;;;-1.49;83.15;102781.50;2505666;28;20639;-79
2023/12/17 02:41:25;;;;;;;21.25;11.20;;;;;;;-1.48;83.29;102785.84;2506346;28;20054;-79
2023/12/17 02:42:39;;;;;;;17.27;11.90;;;;;;;-1.49;83.27;102786.63;2506466;28;20314;-78
2023/12/17 02:43:53;;;;;;;20.25;11.20;;;;;;;-1.48;83.77;102787.53;2506083;28;20287;-79
2023/12/17 02:45:09;;;;;;;17.25;12.02;;;;;;;-1.49;83.36;102778.06;2506600;28;20298;-79
2023/12/17 02:46:22;;;;;;;16.77;13.45;;;;;;;-1.49;83.60;102788.31;2506564;28;20046;-80
2023/12/17 02:47:36;;;;;;;18.80;12.10;;;;;;;-1.49;83.34;102775.50;2505536;28;20809;-79
2023/12/17 02:48:50;;;;;;;26.55;15.05;;;;;;;-1.51;83.28;102777.94;2506060;28;20042;-80
2023/12/17 02:50:05;;;;;;;23.08;13.38;;;;;;;-1.52;83.22;102780.38;2505914;28;20316;-79
2023/12/17 02:51:18;;;;;;;15.35;11.55;;;;;;;-1.56;83.23;102769.91;2506026;28;20057;-80
2023/12/17 02:52:33;;;;;;;22.92;12.10;;;;;;;-1.55;83.63;102770.78;2506755;28;20302;-79
2023/12/17 02:53:46;;;;;;;15.95;11.40;;;;;;;-1.56;83.21;102764.78;2506692;28;20054;-79
2023/12/17 02:55:01;;;;;;;19.15;11.82;;;;;;;-1.56;83.29;102769.91;2506445;28;20678;-79
2023/12/17 02:56:14;;;;;;;15.73;10.93;;;;;;;-1.55;83.50;102761.47;2506183;28;20055;-79
2023/12/17 02:57:30;;;;;;;14.77;11.10;;;;;;;-1.54;83.21;102760.69;2506922;28;20365;-79
2023/12/17 02:58:43;;;;;;;19.48;12.45;;;;;;;-1.54;83.44;102758.13;2507399;28;20054;-79
2023/12/17 02:59:58;;;;;;;17.08;11.45;;;;;;;-1.54;83.45;102759.78;2506358;28;20286;-79
2023/12/17 03:01:11;;;;;;;14.88;11.68;;;;;;;-1.56;83.43;102756.22;2506025;28;20065;-78
2023/12/17 03:02:26;;;;;;;17.58;10.70;;;;;;;-1.58;83.16;102762.88;2505925;28;20320;-79
2023/12/17 03:03:39;;;;;;;16.85;11.10;;;;;;;-1.59;83.69;102756.88;2506619;28;20042;-78
2023/12/17 03:04:53;;;;;;;17.17;13.00;;;;;;;-1.57;83.37;102762.13;2506694;28;20316;-79
2023/12/17 03:06:07;;;;;;;17.65;13.02;;;;;;;-1.56;83.49;102756.22;2506517;28;20060;-80
2023/12/17 03:07:21;;;;;;;17.38;10.18;;;;;;;-1.53;83.90;102759.00;2506164;28;20310;-79
2023/12/17 03:08:37;;;;;;;16.33;12.32;;;;;;;-1.49;83.85;102749.91;2507140;28;20062;-78
2023/12/17 03:09:54;;;;;;;20.13;11.95;;;;;;;-1.48;83.74;102750.00;2506559;28;20364;-79
2023/12/17 03:11:07;;;;;;;18.70;13.27;;;;;;;-1.47;83.75;102746.69;2506945;28;20328;-79
2023/12/17 03:12:22;;;;;;;16.58;12.02;;;;;;;-1.47;83.75;102739.00;2506359;28;20294;-79
2023/12/17 03:13:37;;;;;;;18.10;12.70;;;;;;;-1.47;83.68;102739.00;2507028;28;20511;-79
2023/12/17 03:14:51;;;;;;;19.52;13.13;;;;;;;-1.48;83.82;102739.75;2506927;28;20337;-80
2023/12/17 03:16:08;;;;;;;18.05;10.80;;;;;;;-1.47;83.48;102740.63;2509422;28;20286;-79
2023/12/17 03:17:22;;;;;;;18.08;12.82;;;;;;;-1.48;83.31;102746.56;2506119;28;20727;-79
2023/12/17 03:18:36;;;;;;;20.13;13.50;;;;;;;-1.48;83.55;102747.44;2506274;28;20301;-79
2023/12/17 03:19:50;;;;;;;21.58;12.55;;;;;;;-1.49;83.69;102745.66;2505947;28;20312;-78
2023/12/17 03:21:05;;;;;;;13.05;11.60;;;;;;;-1.50;83.54;102743.84;2506439;28;20047;-79
2023/12/17 03:22:19;;;;;;;23.42;12.68;;;;;;;-1.53;83.60;102743.63;2506458;28;20396;-79
2023/12/17 03:23:33;;;;;;;19.85;12.23;;;;;;;-1.55;83.32;102740.06;2506273;28;20775;-79
2023/12/17 03:24:47;;;;;;;24.05;11.50;;;;;;;-1.57;84.01;102731.41;2506407;28;20326;-79
2023/12/17 03:26:02;;;;;;;17.75;10.80;;;;;;;-1.59;83.73;102727.84;2507059;28;20059;-79
2023/12/17 03:27:16;;;;;;;11.07;9.30;;;;;;;-1.61;83.63;102720.03;2506023;28;20341;-78
2023/12/17 03:28:30;;;;;;;12.30;9.82;;;;;;;-1.61;83.55;102721.69;2507182;28;20305;-79
2023/12/17 03:29:45;;;;;;;13.18;10.18;;;;;;;-1.64;83.69;102717.25;2506597;28;20312;-79
2023/12/17 03:30:59;;;;;;;15.02;10.02;;;;;;;-1.66;83.78;102718.78;2506642;28;20051;-79
2023/12/17 03:32:14;;;;;;;12.80;9.65;;;;;;;-1.67;83.88;102714.47;2506029;28;20286;-79
2023/12/17 03:33:28;;;;;;;18.08;12.38;;;;;;;-1.66;83.57;102720.47;2506680;28;20050;-79
2023/12/17 03:34:42;;;;;;;17.80;9.63;;;;;;;-1.64;83.82;102712.13;2506833;28;20317;-79
2023/12/17 03:35:56;;;;;;;27.63;17.70;;;;;;;-1.63;83.89;102710.44;2506216;28;20046;-79
2023/12/17 03:37:10;;;;;;;34.13;21.45;;;;;;;-1.64;83.88;102714.69;2507410;28;20324;-79
2023/12/17 03:38:24;;;;;;;23.58;15.38;;;;;;;-1.62;83.86;102707.13;2506692;28;20046;-79
2023/12/17 03:39:38;;;;;;;16.00;11.45;;;;;;;-1.59;83.60;102712.47;2506582;28;20308;-80
2023/12/17 03:40:51;;;;;;;15.05;12.05;;;;;;;-1.61;83.53;102716.59;2503461;28;20544;-79
2023/12/17 03:42:06;;;;;;;18.75;12.07;;;;;;;-1.62;83.63;102705.47;2503130;28;20320;-79
2023/12/17 03:43:19;;;;;;;12.88;11.05;;;;;;;-1.64;83.81;102707.00;2515104;28;20065;-79
2023/12/17 03:44:33;;;;;;;15.13;10.73;;;;;;;-1.64;83.72;102703.56;2509125;28;20306;-78
2023/12/17 03:45:49;;;;;;;17.55;10.32;;;;;;;-1.65;83.69;102696.63;2513419;28;20100;-79
2023/12/17 03:47:03;;;;;;;16.52;10.45;;;;;;;-1.68;83.46;102699.88;2507250;28;20057;-79
2023/12/17 03:48:17;;;;;;;11.88;10.00;;;;;;;-1.67;83.42;102700.78;2497005;28;20318;-79
2023/12/17 03:49:30;;;;;;;16.17;12.02;;;;;;;-1.68;83.53;102704.09;2504390;28;20054;-79
2023/12/17 03:50:45;;;;;;;31.50;20.52;;;;;;;-1.68;83.52;102706.66;2496909;28;20313;-79
2023/12/17 03:51:58;;;;;;;19.88;14.57;;;;;;;-1.69;83.73;102702.34;2501876;28;20432;-77
2023/12/17 03:53:13;;;;;;;25.17;15.00;;;;;;;-1.70;83.48;102713.31;2505469;28;20306;-79
2023/12/17 03:54:26;;;;;;;16.92;11.13;;;;;;;-1.69;83.58;102715.13;2506518;28;20050;-78
2023/12/17 03:55:41;;;;;;;20.88;13.18;;;;;;;-1.68;83.65;102709.22;2511085;28;20296;-79
2023/12/17 03:56:54;;;;;;;18.95;12.85;;;;;;;-1.69;83.81;102713.47;2506245;28;20057;-80
2023/12/17 03:58:08;;;;;;;17.95;12.07;;;;;;;-1.69;83.63;102715.13;2507056;28;20306;-79
2023/12/17 03:59:22;;;;;;;15.70;11.50;;;;;;;-1.71;83.87;102716.69;2505926;28;20050;-79
2023/12/17 04:00:36;;;;;;;18.08;10.88;;;;;;;-1.73;83.69;102719.13;2508879;28;20310;-79
2023/12/17 04:01:51;;;;;;;15.95;10.82;;;;;;;-1.72;83.62;102714.91;2515824;28;20046;-78
2023/12/17 04:03:06;;;;;;;20.30;10.82;;;;;;;-1.72;84.04;102714.91;2510013;28;20349;-80
2023/12/17 04:04:19;;;;;;;14.75;11.35;;;;;;;-1.71;83.70;102717.56;2497435;28;20287;-80
2023/12/17 04:05:34;;;;;;;19.13;11.98;;;;;;;-1.70;83.74;102711.69;2506167;28;20690;-78
2023/12/17 04:06:47;;;;;;;92.85;46.28;;;;;;;-1.66;83.46;102715.34;2502033;28;20058;-79
2023/12/17 04:08:01;;;;;;;68.80;35.63;;;;;;;-1.63;83.66;102721.56;2508063;28;20791;-80
2023/12/17 04:09:15;;;;;;;38.22;21.45;;;;;;;-1.61;83.56;102708.91;2514201;28;20047;-78
2023/12/17 04:10:29;;;;;;;20.40;12.15;;;;;;;-1.60;83.55;102715.78;2508897;28;20744;-80
2023/12/17 04:11:43;;;;;;;21.15;12.88;;;;;;;-1.61;83.92;102711.47;2515186;28;20046;-79
2023/12/17 04:12:57;;;;;;;18.77;11.90;;;;;;;-1.61;83.57;102708.91;2513611;28;20388;-80
2023/12/17 04:14:11;;;;;;;13.68;11.00;;;;;;;-1.62;83.72;102708.00;2512075;28;20564;-80
2023/12/17 04:15:25;;;;;;;14.93;9.98;;;;;;;-1.63;83.65;102711.34;2515819;28;20301;-79
2023/12/17 04:16:38;;;;;;;17.05;11.05;;;;;;;-1.62;83.78;102712.25;2509009;28;20050;-80
2023/12/17 04:17:54;;;;;;;15.98;11.70;;;;;;;-1.62;83.50;102717.38;2508533;28;20316;-78
2023/12/17 04:19:08;;;;;;;15.85;10.63;;;;;;;-1.61;83.49;102726.81;2515892;28;20046;-80
2023/12/17 04:20:22;;;;;;;13.82;11.25;;;;;;;-1.62;83.87;102725.94;2500809;28;20322;-78
2023/12/17 04:21:35;;;;;;;16.52;9.57;;;;;;;-1.62;83.58;102720.81;2526951;23;20069;-82
2023/12/17 04:22:50;;;;;;;21.35;11.30;;;;;;;-1.62;83.43;102725.94;2519679;28;20372;-82
2023/12/17 04:24:04;;;;;;;14.57;10.63;;;;;;;-1.63;83.50;102725.81;2518359;28;20077;-83
2023/12/17 04:25:19;;;;;;;17.42;10.48;;;;;;;-1.62;83.46;102725.06;2517984;28;20304;-81
2023/12/17 04:26:32;;;;;;;14.70;10.88;;;;;;;-1.64;83.25;102724.94;2518736;28;20328;-81
2023/12/17 04:27:47;;;;;;;23.10;11.25;;;;;;;-1.62;83.53;102725.94;2523348;28;20284;-82
2023/12/17 04:29:00;;;;;;;16.67;10.52;;;;;;;-1.62;83.63;102723.38;2529027;28;20044;-82
2023/12/17 04:30:15;;;;;;;21.02;13.40;;;;;;;-1.63;83.09;102725.81;2527951;28;20297;-83
2023/12/17 04:31:28;;;;;;;14.52;10.95;;;;;;;-1.62;83.20;102723.38;2527311;28;20131;-82
2023/12/17 04:32:42;;;;;;;12.88;8.70;;;;;;;-1.64;83.31;102729.16;2526905;28;20863;-82
2023/12/17 04:33:57;;;;;;;15.50;9.57;;;;;;;-1.63;83.60;102728.38;2527765;28;20049;-81
2023/12/17 04:35:12;;;;;;;17.13;10.48;;;;;;;-1.67;83.24;102729.81;2526518;28;20344;-82
2023/12/17 04:36:26;;;;;;;17.02;10.15;;;;;;;-1.66;83.46;102730.72;2526929;28;20309;-81
2023/12/17 04:37:40;;;;;;;22.33;10.40;;;;;;;-1.66;83.44;102723.03;2526907;28;20316;-82
2023/12/17 04:38:54;;;;;;;16.85;10.32;;;;;;;-1.65;83.62;102722.25;2528082;28;20312;-81
2023/12/17 04:40:09;;;;;;;15.23;10.00;;;;;;;-1.67;83.55;102718.69;2527073;28;20042;-82
2023/12/17 04:41:24;;;;;;;14.90;9.93;;;;;;;-1.68;83.84;102716.91;2528285;28;20380;-81
2023/12/17 04:42:37;;;;;;;16.27;9.27;;;;;;;-1.68;83.43;102717.78;2527581;28;20301;-81
2023/12/17 04:43:52;;;;;;;11.77;9.55;;;;;;;-1.67;83.84;102718.69;2528347;28;20275;-84
2023/12/17 04:45:06;;;;;;;14.40;9.70;;;;;;;-1.68;83.51;102722.03;2527846;28;20049;-81
2023/12/17 04:46:21;;;;;;;17.60;9.23;;;;;;;-1.69;83.44;102718.56;2528741;28;20307;-82
2023/12/17 04:47:34;;;;;;;13.95;8.63;;;;;;;-1.69;83.87;102725.38;2528363;28;20371;-80
2023/12/17 04:48:49;;;;;;;12.25;9.40;;;;;;;-1.69;83.35;102720.25;2528105;28;20395;-81
2023/12/17 04:50:05;;;;;;;13.45;9.35;;;;;;;-1.70;83.48;102718.44;2527255;28;20049;-83
2023/12/17 04:51:19;;;;;;;13.98;8.77;;;;;;;-1.72;83.49;102720.91;2527124;28;20343;-80
2023/12/17 04:52:32;;;;;;;16.75;10.13;;;;;;;-1.71;83.59;102722.69;2528211;28;20349;-83
2023/12/17 04:53:47;;;;;;;14.85;9.88;;;;;;;-1.74;83.41;102717.34;2528644;28;20308;-83
2023/12/17 04:55:00;;;;;;;12.40;8.98;;;;;;;-1.73;83.88;102718.22;2529017;28;20498;-83
2023/12/17 04:56:15;;;;;;;11.57;8.88;;;;;;;-1.72;83.70;102717.47;2527219;28;20299;-83
2023/12/17 04:57:28;;;;;;;12.75;10.10;;;;;;;-1.71;83.69;102714.13;2528041;28;20077;-81
2023/12/17 04:58:43;;;;;;;15.63;9.38;;;;;;;-1.71;83.35;102707.31;2527793;28;20300;-80
2023/12/17 04:59:56;;;;;;;10.93;8.30;;;;;;;-1.70;83.93;102708.22;2528614;28;20049;-83
2023/12/17 05:01:11;;;;;;;11.20;8.27;;;;;;;-1.69;83.88;102710.00;2527834;28;20319;-84
2023/12/17 05:02:24;;;;;;;11.73;8.52;;;;;;;-1.69;83.69;102715.13;2528019;28;20057;-81
2023/12/17 05:03:39;;;;;;;11.48;9.95;;;;;;;-1.71;83.84;102709.00;2527195;28;20704;-81
2023/12/17 05:04:53;;;;;;;12.75;8.45;;;;;;;-1.70;83.56;102710.75;2527942;28;20073;-80
2023/12/17 05:06:09;;;;;;;11.40;7.82;;;;;;;-1.69;83.54;102710.00;2527321;28;20301;-79
2023/12/17 05:07:23;;;;;;;14.55;10.40;;;;;;;-1.69;83.90;102710.91;2527826;28;20050;-80
2023/12/17 05:08:37;;;;;;;17.13;10.77;;;;;;;-1.68;83.87;102711.78;2528197;28;20304;-81
2023/12/17 05:09:52;;;;;;;16.02;8.82;;;;;;;-1.69;83.48;102710.91;2528535;28;20042;-80
2023/12/17 05:11:07;;;;;;;10.88;9.75;;;;;;;-1.69;83.62;102707.44;2527449;28;20375;-80
2023/12/17 05:12:20;;;;;;;10.82;8.65;;;;;;;-1.70;83.82;102716.81;2526485;28;21039;-80
2023/12/17 05:13:34;;;;;;;13.95;8.40;;;;;;;-1.71;83.81;102712.44;2526486;28;20304;-82
2023/12/17 05:14:48;;;;;;;14.98;9.60;;;;;;;-1.73;83.58;102711.44;2529121;28;20045;-81
2023/12/17 05:16:02;;;;;;;11.93;9.00;;;;;;;-1.73;83.55;102713.09;2528625;28;20649;-83
2023/12/17 05:17:16;;;;;;;32.10;10.25;;;;;;;-1.75;83.91;102710.44;2527405;28;20134;-81
2023/12/17 05:18:30;;;;;;;12.98;9.77;;;;;;;-1.75;83.53;102710.44;2525655;28;20665;-81
2023/12/17 05:19:44;;;;;;;11.20;7.75;;;;;;;-1.78;83.90;102716.22;2525816;28;20510;-81
2023/12/17 05:20:58;;;;;;;12.73;9.02;;;;;;;-1.79;83.62;102701.63;2526387;28;20312;-80
2023/12/17 05:22:13;;;;;;;13.13;9.38;;;;;;;-1.77;83.64;102710.31;2525896;28;20042;-80
2023/12/17 05:23:27;;;;;;;13.73;8.90;;;;;;;-1.77;83.93;102700.09;2526622;28;20313;-81
2023/12/17 05:24:41;;;;;;;13.43;8.45;;;;;;;-1.76;83.60;102706.09;2525997;28;20797;-81
2023/12/17 05:25:55;;;;;;;11.23;7.65;;;;;;;-1.74;83.51;102701.97;2526427;28;20305;-80
2023/12/17 05:27:08;;;;;;;17.95;9.02;;;;;;;-1.72;83.65;102704.66;2526893;28;20046;-80
2023/12/17 05:28:23;;;;;;;17.70;8.45;;;;;;;-1.72;83.95;102713.22;2526910;28;20819;-80
2023/12/17 05:29:36;;;;;;;11.90;8.30;;;;;;;-1.72;83.52;102704.66;2527085;28;20397;-80
2023/12/17 05:30:52;;;;;;;18.98;8.90;;;;;;;-1.72;83.58;102709.78;2527302;28;20403;-80
2023/12/17 05:32:06;;;;;;;11.27;8.27;;;;;;;-1.77;83.54;102702.66;2526356;28;20544;-79
2023/12/17 05:33:20;;;;;;;15.73;9.48;;;;;;;-1.78;83.75;102705.09;2526816;28;20335;-80
2023/12/17 05:34:34;;;;;;;13.13;8.13;;;;;;;-1.81;83.46;102700.66;2527541;28;20061;-80
2023/12/17 05:35:48;;;;;;;10.48;8.50;;;;;;;-1.81;84.18;102707.41;2526327;28;20292;-80
2023/12/17 05:37:02;;;;;;;12.88;8.48;;;;;;;-1.82;83.56;102703.97;2527583;28;20052;-80
2023/12/17 05:38:18;;;;;;;10.80;7.90;;;;;;;-1.82;83.97;102709.09;2527169;28;20312;-80
2023/12/17 05:39:31;;;;;;;11.35;8.10;;;;;;;-1.83;83.53;102706.44;2526248;28;20048;-81
2023/12/17 05:40:46;;;;;;;13.68;9.30;;;;;;;-1.85;83.50;102696.06;2526773;28;20873;-80